createdAt,value
2023-02-13T00:00:43.940Z,8.63
2023-02-13T00:05:35.655Z,6.82
2023-02-13T00:10:27.342Z,6.35
2023-02-13T00:15:19.134Z,6.63
2023-02-13T00:20:12.520Z,7.18
2023-02-13T00:25:05.771Z,5.53
2023-02-13T00:29:57.436Z,4.72
2023-02-13T00:34:49.338Z,4.90
2023-02-13T00:39:42.099Z,6.80
2023-02-13T00:44:34.111Z,5.18
2023-02-13T00:49:26.093Z,5.55
2023-02-13T00:54:17.918Z,5.18
2023-02-13T00:59:09.636Z,5.07
2023-02-13T01:04:01.482Z,6.35
2023-02-13T01:08:53.294Z,7.35
2023-02-13T01:13:46.657Z,7.80
2023-02-13T01:18:39.059Z,6.95
2023-02-13T01:23:37.772Z,5.20
2023-02-13T01:28:29.739Z,6.15
2023-02-13T01:33:22.784Z,6.53
2023-02-13T01:38:15.428Z,6.72
2023-02-13T01:43:10.198Z,5.13
2023-02-13T01:48:09.661Z,5.25
2023-02-13T01:53:32.087Z,4.78
2023-02-13T01:58:29.208Z,5.20
2023-02-13T02:03:28.280Z,5.15
2023-02-13T02:08:20.501Z,5.78
2023-02-13T02:13:20.261Z,4.97
2023-02-13T02:18:19.917Z,5.70
2023-02-13T02:23:30.603Z,7.00
2023-02-13T02:28:50.524Z,5.47
2023-02-13T02:33:57.379Z,5.68
2023-02-13T02:39:02.964Z,4.60
2023-02-13T02:44:16.851Z,6.15
2023-02-13T02:49:33.829Z,4.45
2023-02-13T02:55:09.568Z,5.65
2023-02-13T03:00:20.331Z,4.53
2023-02-13T03:05:45.692Z,5.80
2023-02-13T03:10:58.108Z,5.53
2023-02-13T03:16:16.459Z,6.57
2023-02-13T03:21:44.920Z,6.70
2023-02-13T03:26:51.652Z,5.43
2023-02-13T03:32:03.515Z,9.32
2023-02-13T03:37:30.025Z,9.73
2023-02-13T03:42:36.013Z,9.10
2023-02-13T03:47:27.906Z,11.75
2023-02-13T03:52:26.432Z,8.40
2023-02-13T03:57:40.431Z,8.88
2023-02-13T04:02:38.287Z,12.38
2023-02-13T04:07:30.739Z,11.35
2023-02-13T04:12:36.778Z,12.00
2023-02-13T04:17:36.893Z,9.88
2023-02-13T04:22:28.644Z,9.25
2023-02-13T04:27:20.527Z,11.68
2023-02-13T04:32:13.860Z,12.45
2023-02-13T04:37:05.633Z,9.48
2023-02-13T04:41:57.737Z,10.60
2023-02-13T04:46:50.814Z,13.25
2023-02-13T04:51:42.858Z,11.60
2023-02-13T04:56:34.656Z,11.82
2023-02-13T05:01:32.529Z,13.25
2023-02-13T05:06:24.499Z,12.07
2023-02-13T05:11:16.567Z,15.30
2023-02-13T05:16:08.658Z,15.95
2023-02-13T05:21:19.105Z,14.65
2023-02-13T05:26:10.832Z,16.35
2023-02-13T05:31:02.900Z,16.65
2023-02-13T05:35:54.754Z,17.85
2023-02-13T05:40:46.448Z,14.05
2023-02-13T05:45:38.075Z,19.35
2023-02-13T05:50:29.728Z,19.50
2023-02-13T05:55:21.579Z,15.82
2023-02-13T06:00:13.921Z,18.05
2023-02-13T06:05:06.063Z,22.13
2023-02-13T06:09:59.645Z,19.25
2023-02-13T06:14:51.636Z,20.27
2023-02-13T06:19:43.438Z,21.02
2023-02-13T06:24:35.420Z,22.17
2023-02-13T06:29:27.186Z,20.33
2023-02-13T06:34:18.866Z,21.25
2023-02-13T06:39:11.377Z,21.48
2023-02-13T06:44:03.064Z,17.98
2023-02-13T06:48:54.786Z,22.77
2023-02-13T06:53:46.475Z,20.25
2023-02-13T06:58:40.151Z,18.60
2023-02-13T07:03:31.947Z,21.15
2023-02-13T07:08:23.961Z,24.35
2023-02-13T07:13:15.708Z,24.15
2023-02-13T07:18:07.496Z,18.95
2023-02-13T07:23:04.056Z,23.92
2023-02-13T07:27:56.237Z,22.63
2023-02-13T07:32:50.654Z,20.80
2023-02-13T07:37:42.400Z,22.00
2023-02-13T07:42:34.887Z,23.10
2023-02-13T07:47:26.662Z,27.08
2023-02-13T07:52:18.430Z,22.73
2023-02-13T07:57:10.211Z,24.15
2023-02-13T08:02:01.948Z,27.25
2023-02-13T08:06:53.709Z,23.65
2023-02-13T08:11:54.298Z,25.10
2023-02-13T08:16:46.185Z,26.00
2023-02-13T08:21:38.540Z,24.20
2023-02-13T08:26:31.965Z,26.15
2023-02-13T08:31:23.953Z,25.98
2023-02-13T08:36:15.826Z,23.70
2023-02-13T08:41:07.774Z,25.63
2023-02-13T08:46:01.100Z,28.98
2023-02-13T08:50:53.450Z,24.98
2023-02-13T08:55:53.521Z,25.02
2023-02-13T09:00:45.210Z,23.00
2023-02-13T09:05:36.991Z,26.27
2023-02-13T09:10:28.816Z,23.48
2023-02-13T09:15:20.720Z,26.60
2023-02-13T09:20:14.032Z,25.02
2023-02-13T09:25:06.904Z,23.70
2023-02-13T09:29:58.600Z,21.85
2023-02-13T09:34:50.309Z,26.65
2023-02-13T09:39:42.251Z,25.02
2023-02-13T09:44:43.486Z,22.25
2023-02-13T09:49:39.021Z,25.08
2023-02-13T09:54:32.297Z,25.52
2023-02-13T09:59:23.948Z,24.88
2023-02-13T10:04:52.890Z,23.67
2023-02-13T10:09:55.431Z,23.35
2023-02-13T10:15:00.380Z,23.73
2023-02-13T10:20:03.754Z,19.23
2023-02-13T10:25:01.554Z,22.33
2023-02-13T10:30:09.357Z,21.45
2023-02-13T10:35:04.235Z,25.13
2023-02-13T10:39:56.365Z,23.45
2023-02-13T10:45:30.060Z,19.10
2023-02-13T10:50:40.162Z,22.48
2023-02-13T10:55:51.492Z,19.45
2023-02-13T11:00:56.406Z,22.35
2023-02-13T11:05:49.785Z,21.40
2023-02-13T11:10:41.566Z,19.15
2023-02-13T11:15:33.504Z,23.30
2023-02-13T11:20:39.905Z,23.38
2023-02-13T11:25:31.680Z,23.08
2023-02-13T11:30:23.445Z,21.80
2023-02-13T11:35:36.618Z,22.75
2023-02-13T11:40:32.465Z,23.38
2023-02-13T11:45:26.222Z,23.02
2023-02-13T11:50:32.537Z,22.17
2023-02-13T11:55:33.632Z,19.98
2023-02-13T12:00:30.216Z,22.65
2023-02-13T12:05:24.858Z,20.00
2023-02-13T12:10:23.486Z,22.75
2023-02-13T12:15:25.565Z,23.65
2023-02-13T12:20:18.210Z,20.05
2023-02-13T12:25:19.438Z,21.05
2023-02-13T12:30:29.166Z,20.58
2023-02-13T12:35:50.295Z,19.05
2023-02-13T12:41:13.013Z,21.15
2023-02-13T12:46:50.141Z,20.17
2023-02-13T12:52:10.822Z,17.35
2023-02-13T12:57:11.039Z,21.90
2023-02-13T13:02:11.810Z,20.75
2023-02-13T13:07:37.834Z,18.88
2023-02-13T13:13:00.785Z,23.67
2023-02-13T13:18:04.510Z,23.50
2023-02-13T13:23:26.462Z,23.02
2023-02-13T13:28:26.232Z,21.35
2023-02-13T13:33:20.824Z,20.88
2023-02-13T13:38:19.626Z,21.65
2023-02-13T13:43:41.430Z,20.83
2023-02-13T13:48:54.121Z,19.08
2023-02-13T13:54:19.522Z,19.10
2023-02-13T13:59:18.456Z,20.98
2023-02-13T14:04:31.919Z,22.30
2023-02-13T14:09:27.983Z,19.92
2023-02-13T14:14:29.015Z,19.77
2023-02-13T14:19:29.571Z,22.77
2023-02-13T14:24:24.253Z,22.98
2023-02-13T14:29:18.611Z,20.98
2023-02-13T14:34:15.072Z,19.17
2023-02-13T14:39:33.595Z,19.70
2023-02-13T14:44:32.507Z,23.83
2023-02-13T14:49:37.242Z,20.40
2023-02-13T14:54:34.537Z,19.77
2023-02-13T14:59:35.277Z,19.83
2023-02-13T15:04:49.334Z,22.73
2023-02-13T15:09:48.577Z,23.40
2023-02-13T15:14:40.316Z,21.98
2023-02-13T15:19:34.609Z,19.60
2023-02-13T15:24:27.948Z,18.73
2023-02-13T15:29:29.337Z,18.83
2023-02-13T15:34:34.481Z,20.83
2023-02-13T15:39:31.378Z,20.58
2023-02-13T15:44:27.672Z,23.02
2023-02-13T15:49:25.714Z,22.15
2023-02-13T15:54:27.929Z,25.25
2023-02-13T15:59:21.447Z,21.85
2023-02-13T16:04:15.846Z,18.67
2023-02-13T16:09:07.709Z,22.23
2023-02-13T16:13:59.394Z,22.52
2023-02-13T16:18:52.344Z,21.55
2023-02-13T16:23:45.687Z,21.92
2023-02-13T16:28:37.974Z,23.17
2023-02-13T16:33:35.884Z,21.33
2023-02-13T16:38:46.269Z,24.80
2023-02-13T16:43:49.172Z,27.27
2023-02-13T16:48:59.879Z,37.45
2023-02-13T16:53:58.356Z,26.50
2023-02-13T16:58:50.445Z,27.10
2023-02-13T17:03:42.421Z,29.40
2023-02-13T17:08:34.201Z,27.98
2023-02-13T17:13:25.938Z,33.42
2023-02-13T17:18:17.925Z,28.08
2023-02-13T17:23:17.490Z,29.80
2023-02-13T17:28:15.252Z,31.30
2023-02-13T17:33:14.785Z,27.33
2023-02-13T17:38:08.404Z,29.38
2023-02-13T17:43:00.378Z,30.42
2023-02-13T17:47:52.108Z,31.83
2023-02-13T17:52:45.978Z,32.13
2023-02-13T17:57:37.696Z,32.13
2023-02-13T18:02:29.461Z,26.35
2023-02-13T18:07:21.818Z,30.83
2023-02-13T18:12:20.008Z,35.78
2023-02-13T18:22:04.949Z,30.33
2023-02-13T18:26:56.867Z,35.35
2023-02-13T18:31:51.270Z,35.70
2023-02-13T18:36:43.139Z,33.42
2023-02-13T18:41:34.922Z,34.67
2023-02-13T18:46:26.740Z,33.40
2023-02-13T18:51:18.658Z,36.63
2023-02-13T18:56:12.082Z,33.90
2023-02-13T19:01:12.615Z,39.70
2023-02-13T19:06:09.492Z,39.20
2023-02-13T19:11:05.037Z,36.38
2023-02-13T19:15:56.846Z,35.88
2023-02-13T19:20:48.565Z,40.08
2023-02-13T19:25:40.236Z,38.67
2023-02-13T19:30:32.017Z,42.13
2023-02-13T19:35:24.693Z,36.30
2023-02-13T19:40:16.441Z,35.42
2023-02-13T19:45:08.634Z,37.88
2023-02-13T19:50:00.468Z,39.30
2023-02-13T19:54:54.195Z,36.47
2023-02-13T19:59:45.919Z,37.80
2023-02-13T20:04:39.349Z,34.83
2023-02-13T20:09:31.138Z,38.90
2023-02-13T20:14:22.818Z,39.38
2023-02-13T20:19:14.822Z,43.58
2023-02-13T20:24:06.896Z,38.53
2023-02-13T20:28:59.741Z,36.88
2023-02-13T20:33:52.540Z,35.80
2023-02-13T20:38:45.115Z,40.97
2023-02-13T20:43:37.432Z,36.58
2023-02-13T20:48:29.271Z,35.55
2023-02-13T20:53:21.432Z,37.95
2023-02-13T20:58:13.222Z,44.20
2023-02-13T21:03:05.057Z,38.97
2023-02-13T21:07:57.002Z,39.65
2023-02-13T21:12:48.672Z,40.10
2023-02-13T21:17:41.926Z,45.13
2023-02-13T21:22:35.093Z,38.85
2023-02-13T21:27:28.496Z,42.90
2023-02-13T21:32:20.987Z,41.83
2023-02-13T21:37:12.724Z,41.88
2023-02-13T21:42:04.971Z,39.95
2023-02-13T21:46:56.746Z,42.42
2023-02-13T21:51:48.541Z,40.80
2023-02-13T21:56:42.455Z,39.90
2023-02-13T22:01:37.574Z,43.85
2023-02-13T22:06:31.731Z,40.15
2023-02-13T22:11:24.173Z,39.47
2023-02-13T22:16:16.038Z,40.58
2023-02-13T22:21:09.983Z,37.03
2023-02-13T22:26:02.354Z,44.00
2023-02-13T22:30:55.001Z,46.53
2023-02-13T22:35:46.861Z,48.78
2023-02-13T22:40:39.056Z,43.25
2023-02-13T22:45:31.411Z,43.15
2023-02-13T22:50:23.077Z,46.03
2023-02-13T22:55:14.856Z,44.55
2023-02-13T23:00:09.321Z,47.03
2023-02-13T23:05:01.136Z,45.33
2023-02-13T23:09:52.913Z,42.72
2023-02-13T23:14:44.554Z,46.45
2023-02-13T23:19:36.501Z,47.58
2023-02-13T23:24:31.323Z,43.25
2023-02-13T23:29:23.072Z,50.83
2023-02-13T23:34:14.908Z,49.40
2023-02-13T23:39:08.392Z,43.10
2023-02-13T23:44:00.137Z,45.90
2023-02-13T23:48:51.791Z,49.85
2023-02-13T23:53:43.489Z,50.58
2023-02-13T23:58:35.262Z,50.50
